Home > Products > Valid Products > MTR

000
SAUS43 KBIS 191853
MTRN60
METAR KN60 191852Z AUTO 32025G36KT 08/02 A2989 RMK AO1 PK WND
32037/1806 SLP133 T00780022





000
SAUS43 KBIS 191754
MTRN60
METAR KN60 191752Z AUTO 33026G35KT 07/03 A2989 RMK AO1 PK WND
32035/1750 SLP134 T00720028 10083 20017 51001





000
SAUS43 KBIS 191654
MTRN60
METAR KN60 191652Z AUTO 31025G32KT 07/03 A2989 RMK AO1 PK WND
32033/1630 SLP133 T00720028





000
SAUS43 KBIS 191554
MTRN60
METAR KN60 191552Z AUTO 32025G34KT 06/03 A2989 RMK AO1 PK WND
32038/1503 SLP133 T00610028





000
SAUS43 KBIS 191454
MTRN60
METAR KN60 191452Z AUTO 32025G32KT 07/03 A2989 RMK AO1 PK WND
31032/1444 SLP132 T00670028 58007





000
SAUS43 KBIS 191354
MTRN60
METAR KN60 191352Z AUTO 30017G24KT 05/02 A2990 RMK AO1 SLP136
T00500017





000
SAUS43 KBIS 191253
MTRN60
METAR KN60 191252Z AUTO 30014KT 04/01 A2991 RMK AO1 SLP139 T00390006





000
SAUS43 KBIS 191154
MTRN60
METAR KN60 191152Z AUTO 29012KT 02/M01 A2991 RMK AO1 SLP139 70024
T00221011 10072 20022 53002





000
SAUS43 KBIS 191054
MTRN60
METAR KN60 191052Z AUTO 30013KT 04/00 A2990 RMK AO1 SLP131 T00390000





000
SAUS43 KBIS 191054
MTRN60
METAR KN60 191052Z AUTO 30013KT 04/00 A2990 RMK AO1 SLP131 T00390000





000
SAUS43 KBIS 190954
MTRN60
METAR KN60 190952Z AUTO 31014KT 04/01 A2990 RMK AO1 SLP127 T00440006





000
SAUS43 KBIS 190854
MTRN60
METAR KN60 190852Z AUTO 31015KT 05/01 A2990 RMK AO1 SLP128 T00500011
58013





000
SAUS43 KBIS 190854
MTRN60
METAR KN60 190852Z AUTO 31015KT 05/01 A2990 RMK AO1 SLP128 T00500011
58013





000
SAUS43 KBIS 190754
MTRN60
METAR KN60 190752Z AUTO 31015KT 06/02 A2993 RMK AO1 SLP137 T00560017





000
SAUS43 KBIS 190653
MTRN60
METAR KN60 190652Z AUTO 33012KT 06/03 A2994 RMK AO1 SLP142 T00610028





000
SAUS43 KBIS 190554
MTRN60
METAR KN60 190552Z AUTO 33015KT 07/03 A2994 RMK AO1 SLP143 60024
T00720033 10133 20072 402330022 51004





000
SAUS43 KBIS 190554
MTRN60
METAR KN60 190552Z AUTO 33015KT 07/03 A2994 RMK AO1 SLP143 60024
T00720033 10133 20072 402330022 51004





000
SAUS43 KBIS 190454
MTRN60
METAR KN60 190452Z AUTO 34011KT 08/06 A2994 RMK AO1 SLP145 P0003
T00830056





000
SAUS43 KBIS 190354
MTRN60
METAR KN60 190352Z AUTO 32011KT 09/08 A2994 RMK AO1 SLP144 P0002
T00890078





000
SAUS43 KBIS 190253
MTRN60
METAR KN60 190252Z AUTO 34012KT 09/08 A2993 RMK AO1 SLP143 P0008
60019 T00890078 53010





000
SAUS43 KBIS 190154
MTRN60
METAR KN60 190152Z AUTO 35013KT 10/07 A2992 RMK AO1 SLP140 P0007
T01000072





000
SAUS43 KBIS 190053
MTRN60
METAR KN60 190052Z AUTO 03003KT 12/08 A2990 RMK AO1 SLP136 P0004
T01170078





000
SAUS43 KBIS 190053
MTRN60
METAR KN60 190052Z AUTO 03003KT 12/08 A2990 RMK AO1 SLP136 P0004
T01170078





000
SAUS43 KBIS 182354
MTRN60
METAR KN60 182352Z AUTO 29007KT 13/07 A2990 RMK AO1 PK WND
35040/2309 WSHFT 2300 SLP135 T01330072 10233 20133 53011





000
SAUS43 KBIS 182321
MTRN60
SPECI KN60 182320Z AUTO 33019G32KT 16/04 A2988 RMK AO1 PK WND
35040/2309 WSHFT 2300 T01610044





000
SAUS43 KBIS 182321
MTRN60
SPECI KN60 182320Z AUTO 33019G32KT 16/04 A2988 RMK AO1 PK WND
35040/2309 WSHFT 2300 T01610044





000
SAUS43 KBIS 182311
MTRN60
SPECI KN60 182310Z AUTO 35021G40KT 17/03 A2986 RMK AO1 PK WND
35040/2309 WSHFT 2256 T01720028





000
SAUS43 KBIS 182253
MTRN60
METAR KN60 182252Z AUTO 18015G21KT 20/00 A2983 RMK AO1 SLP105
T02000000





000
SAUS43 KBIS 182153
MTRN60
METAR KN60 182152Z AUTO 17010KT 22/M01 A2984 RMK AO1 SLP107
T02221011





000
SAUS43 KBIS 182153
MTRN60
METAR KN60 182152Z AUTO 17010KT 22/M01 A2984 RMK AO1 SLP107
T02221011





000
SAUS43 KBIS 182054
MTRN60
METAR KN60 182052Z AUTO 25006KT 23/M01 A2986 RMK AO1 SLP114
T02281011 56023





000
SAUS43 KBIS 181953
MTRN60
METAR KN60 181952Z AUTO 23008KT 22/M02 A2989 RMK AO1 SLP125
T02171022





000
SAUS43 KBIS 181953
MTRN60
METAR KN60 181952Z AUTO 23008KT 22/M02 A2989 RMK AO1 SLP125
T02171022





000
SAUS43 KBIS 181854
MTRN60
METAR KN60 181852Z AUTO 19007KT 21/M04 A2991 RMK AO1 SLP131
T02061039





000
SAUS43 KBIS 181854
MTRN60
METAR KN60 181852Z AUTO 19007KT 21/M04 A2991 RMK AO1 SLP131
T02061039





000
SAUS43 KBIS 181754
MTRN60
METAR KN60 181752Z AUTO 15005KT 19/M02 A2993 RMK AO1 SLP139
T01891022 10189 20022 58021





000
SAUS43 KBIS 181653
MTRN60
METAR KN60 181652Z AUTO 15007KT 16/M02 A2996 RMK AO1 SLP151
T01561017





000
SAUS43 KBIS 181653
MTRN60
METAR KN60 181652Z AUTO 15007KT 16/M02 A2996 RMK AO1 SLP151
T01561017





000
SAUS43 KBIS 181554
MTRN60
METAR KN60 181552Z AUTO 18010KT 13/M02 A2999 RMK AO1 SLP159
T01331022





000
SAUS43 KBIS 181554
MTRN60
METAR KN60 181552Z AUTO 18010KT 13/M02 A2999 RMK AO1 SLP159
T01331022





000
SAUS43 KBIS 181454
MTRN60
METAR KN60 181452Z AUTO 14010KT 11/M02 A3000 RMK AO1 SLP164
T01111017 58016





000
SAUS43 KBIS 181354
MTRN60
METAR KN60 181352Z AUTO 14008KT 08/M02 A3003 RMK AO1 SLP174
T00781017





000
SAUS43 KBIS 181354
MTRN60
METAR KN60 181352Z AUTO 14008KT 08/M02 A3003 RMK AO1 SLP174
T00781017





000
SAUS43 KBIS 181254
MTRN60
METAR KN60 181252Z AUTO 11006KT 04/M01 A3004 RMK AO1 SLP177
T00391006





000
SAUS43 KBIS 181254
MTRN60
METAR KN60 181252Z AUTO 11006KT 04/M01 A3004 RMK AO1 SLP177
T00391006





000
SAUS43 KBIS 181154
MTRN60
METAR KN60 181152Z AUTO 12006KT 03/M02 A3005 RMK AO1 SLP181
T00281017 10083 20022 56011





000
SAUS43 KBIS 181154
MTRN60
METAR KN60 181152Z AUTO 12006KT 03/M02 A3005 RMK AO1 SLP181
T00281017 10083 20022 56011





000
SAUS43 KBIS 181054
MTRN60
METAR KN60 181052Z AUTO 10009KT 04/M02 A3005 RMK AO1 SLP180
T00391017





000
SAUS43 KBIS 180954
MTRN60
METAR KN60 180952Z AUTO 09007KT 03/M02 A3007 RMK AO1 SLP185
T00331022





000
SAUS43 KBIS 180854
MTRN60
METAR KN60 180852Z AUTO 09005KT 04/M02 A3008 RMK AO1 SLP190
T00441017 58006





000
SAUS43 KBIS 180854
MTRN60
METAR KN60 180852Z AUTO 09005KT 04/M02 A3008 RMK AO1 SLP190
T00441017 58006





000
SAUS43 KBIS 180754
MTRN60
METAR KN60 180752Z AUTO 12005KT 03/M02 A3009 RMK AO1 SLP195
T00331022





000
SAUS43 KBIS 180653
MTRN60
METAR KN60 180652Z AUTO 13007KT 06/M03 A3011 RMK AO1 SLP198
T00611028





000
SAUS43 KBIS 180653
MTRN60
METAR KN60 180652Z AUTO 13007KT 06/M03 A3011 RMK AO1 SLP198
T00611028





000
SAUS43 KBIS 180553
MTRN60
METAR KN60 180552Z AUTO 10011KT 08/M03 A3010 RMK AO1 SLP194
T00831028 10206 20083 402281022 53002





000
SAUS43 KBIS 180453
MTRN60
METAR KN60 180452Z AUTO 07004KT 09/M02 A3010 RMK AO1 SLP193
T00941022





000
SAUS43 KBIS 180354
MTRN60
METAR KN60 180352Z AUTO 03005KT 09/M02 A3010 RMK AO1 SLP196
T00941022





000
SAUS43 KBIS 180254
MTRN60
METAR KN60 180252Z AUTO 04006KT 12/M02 A3009 RMK AO1 SLP195
T01171017 53008





000
SAUS43 KBIS 180154
MTRN60
METAR KN60 180152Z AUTO 06007KT 14/00 A3008 RMK AO1 SLP194 T01440000





000
SAUS43 KBIS 180053
MTRN60
METAR KN60 180052Z AUTO 06009KT 18/M01 A3007 RMK AO1 SLP193
T01781006





000
SAUS43 KBIS 180053
MTRN60
METAR KN60 180052Z AUTO 06009KT 18/M01 A3007 RMK AO1 SLP193
T01781006





000
SAUS43 KBIS 172354
MTRN60
METAR KN60 172352Z AUTO 03007KT 21/M02 A3007 RMK AO1 SLP192
T02061022 10228 20206 55002





000
SAUS43 KBIS 172354
MTRN60
METAR KN60 172352Z AUTO 03007KT 21/M02 A3007 RMK AO1 SLP192
T02061022 10228 20206 55002





000
SAUS43 KBIS 172253
MTRN60
METAR KN60 172252Z AUTO 03009G17KT 22/M03 A3007 RMK AO1 SLP187
T02171033





000
SAUS43 KBIS 172253
MTRN60
METAR KN60 172252Z AUTO 03009G17KT 22/M03 A3007 RMK AO1 SLP187
T02171033





000
SAUS43 KBIS 172154
MTRN60
METAR KN60 172152Z AUTO 01008G14KT 23/M03 A3007 RMK AO1 SLP187
T02281033





000
SAUS43 KBIS 172154
MTRN60
METAR KN60 172152Z AUTO 01008G14KT 23/M03 A3007 RMK AO1 SLP187
T02281033





000
SAUS43 KBIS 172053
MTRN60
METAR KN60 172052Z AUTO 35010G19KT 22/M03 A3008 RMK AO1 SLP191
T02221028 57016





000
SAUS43 KBIS 171954
MTRN60
METAR KN60 171952Z AUTO 36009G14KT 22/M02 A3009 RMK AO1 SLP198
T02221022





000
SAUS43 KBIS 171853
MTRN60
METAR KN60 171852Z AUTO 32011G19KT 300V010 22/M04 A3011 RMK AO1
SLP203 T02171039





000
SAUS43 KBIS 171754
MTRN60
METAR KN60 171752Z AUTO 32015KT 21/M04 A3013 RMK AO1 SLP208
T02111039 10211 21011 58009





000
SAUS43 KBIS 171754
MTRN60
METAR KN60 171752Z AUTO 32015KT 21/M04 A3013 RMK AO1 SLP208
T02111039 10211 21011 58009





000
SAUS43 KBIS 171654
MTRN60
METAR KN60 171652Z AUTO 31017KT 19/M04 A3014 RMK AO1 SLP213
T01891044





000
SAUS43 KBIS 171554
MTRN60
METAR KN60 171552Z AUTO 29011KT 17/M04 A3015 RMK AO1 SLP215
T01671039





000
SAUS43 KBIS 171453
MTRN60
METAR KN60 171452Z AUTO 27008KT 14/M04 A3016 RMK AO1 SLP219
T01391039 58002





000
SAUS43 KBIS 171453
MTRN60
METAR KN60 171452Z AUTO 27008KT 14/M04 A3016 RMK AO1 SLP219
T01391039 58002





000
SAUS43 KBIS 171354
MTRN60
METAR KN60 171352Z AUTO 23005KT 07/M03 A3017 RMK AO1 SLP228
T00721028





000
SAUS43 KBIS 171354
MTRN60
METAR KN60 171352Z AUTO 23005KT 07/M03 A3017 RMK AO1 SLP228
T00721028





000
SAUS43 KBIS 171253
MTRN60
METAR KN60 171252Z AUTO 00000KT 01/M02 A3016 RMK AO1 SLP226
T00111022





000
SAUS43 KBIS 171253
MTRN60
METAR KN60 171252Z AUTO 00000KT 01/M02 A3016 RMK AO1 SLP226
T00111022





000
SAUS43 KBIS 171154
MTRN60
METAR KN60 171152Z AUTO 15003KT M02/M06 A3016 RMK AO1 SLP226
T10171061 10022 21022 56001





000
SAUS43 KBIS 171054
MTRN60
METAR KN60 171052Z AUTO 26003KT 01/M06 A3016 RMK AO1 SLP225
T00061061





000
SAUS43 KBIS 171054
MTRN60
METAR KN60 171052Z AUTO 26003KT 01/M06 A3016 RMK AO1 SLP225
T00061061





000
SAUS43 KBIS 170954
MTRN60
METAR KN60 170952Z AUTO 00000KT 01/M06 A3016 RMK AO1 SLP224
T00111056





000
SAUS43 KBIS 170853
MTRN60
METAR KN60 170852Z AUTO 00000KT 02/M05 A3016 RMK AO1 SLP224
T00171050 50000





000
SAUS43 KBIS 170754
MTRN60
METAR KN60 170752Z AUTO 00000KT 00/M07 A3017 RMK AO1 SLP227
T00001067





000
SAUS43 KBIS 170653
MTRN60
METAR KN60 170652Z AUTO 00000KT 01/M06 A3017 RMK AO1 SLP227
T00061061





000
SAUS43 KBIS 170555
MTRN60
METAR KN60 170552Z AUTO 00000KT 02/M07 A3016 RMK AO1 SLP226
T00221067 10172 20017 401780017 56002





000
SAUS43 KBIS 170555
MTRN60
METAR KN60 170552Z AUTO 00000KT 02/M07 A3016 RMK AO1 SLP226
T00221067 10172 20017 401780017 56002





000
SAUS43 KBIS 170454
MTRN60
METAR KN60 170452Z AUTO 00000KT 04/M07 A3017 RMK AO1 SLP226
T00441067





000
SAUS43 KBIS 170354
MTRN60
METAR KN60 170352Z AUTO 00000KT 06/M07 A3016 RMK AO1 SLP226
T00611067





000
SAUS43 KBIS 170354
MTRN60
METAR KN60 170352Z AUTO 00000KT 06/M07 A3016 RMK AO1 SLP226
T00611067





000
SAUS43 KBIS 170254
MTRN60
METAR KN60 170252Z AUTO 29009KT 07/M06 A3017 RMK AO1 SLP227
T00721056 53013





000
SAUS43 KBIS 170154
MTRN60
METAR KN60 170152Z AUTO 34003KT 11/M06 A3014 RMK AO1 SLP217
T01061056





000
SAUS43 KBIS 170053
MTRN60
METAR KN60 170052Z AUTO 35005KT 16/M05 A3013 RMK AO1 SLP210
T01561050





000
SAUS43 KBIS 170053
MTRN60
METAR KN60 170052Z AUTO 35005KT 16/M05 A3013 RMK AO1 SLP210
T01561050





000
SAUS43 KBIS 162354
MTRN60
METAR KN60 162352Z AUTO 35006KT 17/M07 A3013 RMK AO1 SLP210
T01721067 10178 20144 56005





000
SAUS43 KBIS 162354
MTRN60
METAR KN60 162352Z AUTO 35006KT 17/M07 A3013 RMK AO1 SLP210
T01721067 10178 20144 56005





000
SAUS43 KBIS 162253
MTRN60
METAR KN60 162252Z AUTO 31009KT 17/M08 A3014 RMK AO1 SLP212
T01721078





000
SAUS43 KBIS 162154
MTRN60
METAR KN60 162152Z AUTO 02007G16KT 17/M08 A3014 RMK AO1 SLP212
T01721083





000
SAUS43 KBIS 162054
MTRN60
METAR KN60 162052Z AUTO 33009G16KT 310V010 17/M04 A3014 RMK AO1
SLP214 T01671044 56007





000
SAUS43 KBIS 162054
MTRN60
METAR KN60 162052Z AUTO 33009G16KT 310V010 17/M04 A3014 RMK AO1
SLP214 T01671044 56007





000
SAUS43 KBIS 161955
MTRN60
METAR KN60 161952Z AUTO 36009G18KT 330V030 16/M06 A3015 RMK AO1
SLP217 T01561056





000
SAUS43 KBIS 161955
MTRN60
METAR KN60 161952Z AUTO 36009G18KT 330V030 16/M06 A3015 RMK AO1
SLP217 T01561056





    US Dept of Commerce
    National Oceanic and Atmospheric Administration
    National Weather Service
    1325 East West Highway
    Silver Spring, MD 20910
    Page Author: NWS Internet Services Team
Disclaimer
Information Quality
Credits
Glossary
Privacy Policy
Freedom of Information Act (FOIA)
About Us
Career Opportunities